sensor_id;sensor_type;location;lat;lon;timestamp;P1;durP1;ratioP1;P2;durP2;ratioP2
1679;SDS011;838;51.794;12.258;2023-10-19T00:00:48;9.93;;;7.70;;
1679;SDS011;838;51.794;12.258;2023-10-19T00:03:18;9.60;;;8.00;;
1679;SDS011;838;51.794;12.258;2023-10-19T00:05:45;14.30;;;7.60;;
1679;SDS011;838;51.794;12.258;2023-10-19T00:08:11;12.50;;;7.87;;
1679;SDS011;838;51.794;12.258;2023-10-19T00:10:38;12.23;;;7.83;;
1679;SDS011;838;51.794;12.258;2023-10-19T00:13:04;10.23;;;7.00;;
1679;SDS011;838;51.794;12.258;2023-10-19T00:15:34;14.10;;;8.47;;
1679;SDS011;838;51.794;12.258;2023-10-19T00:18:20;11.07;;;7.60;;
1679;SDS011;838;51.794;12.258;2023-10-19T00:20:48;11.33;;;7.53;;
1679;SDS011;838;51.794;12.258;2023-10-19T00:23:22;11.00;;;7.50;;
1679;SDS011;838;51.794;12.258;2023-10-19T00:25:58;11.10;;;7.50;;
1679;SDS011;838;51.794;12.258;2023-10-19T00:28:25;11.97;;;6.97;;
1679;SDS011;838;51.794;12.258;2023-10-19T00:30:52;10.57;;;7.97;;
1679;SDS011;838;51.794;12.258;2023-10-19T00:33:19;11.73;;;7.60;;
1679;SDS011;838;51.794;12.258;2023-10-19T00:35:46;10.17;;;7.07;;
1679;SDS011;838;51.794;12.258;2023-10-19T00:38:26;13.73;;;8.30;;
1679;SDS011;838;51.794;12.258;2023-10-19T00:41:05;11.43;;;8.13;;
1679;SDS011;838;51.794;12.258;2023-10-19T00:43:34;11.93;;;7.33;;
1679;SDS011;838;51.794;12.258;2023-10-19T00:46:14;12.17;;;7.33;;
1679;SDS011;838;51.794;12.258;2023-10-19T00:48:45;10.77;;;7.90;;
1679;SDS011;838;51.794;12.258;2023-10-19T00:51:14;10.53;;;7.43;;
1679;SDS011;838;51.794;12.258;2023-10-19T00:54:08;10.20;;;7.80;;
1679;SDS011;838;51.794;12.258;2023-10-19T00:56:39;9.53;;;7.00;;
1679;SDS011;838;51.794;12.258;2023-10-19T00:59:13;11.83;;;7.30;;
1679;SDS011;838;51.794;12.258;2023-10-19T01:01:45;10.57;;;7.00;;
1679;SDS011;838;51.794;12.258;2023-10-19T01:04:13;12.40;;;7.60;;
1679;SDS011;838;51.794;12.258;2023-10-19T01:06:44;10.03;;;6.83;;
1679;SDS011;838;51.794;12.258;2023-10-19T01:09:23;10.20;;;7.23;;
1679;SDS011;838;51.794;12.258;2023-10-19T01:11:52;9.20;;;7.00;;
1679;SDS011;838;51.794;12.258;2023-10-19T01:14:22;13.73;;;7.10;;
1679;SDS011;838;51.794;12.258;2023-10-19T01:16:52;11.97;;;7.50;;
1679;SDS011;838;51.794;12.258;2023-10-19T01:19:25;11.47;;;7.37;;
1679;SDS011;838;51.794;12.258;2023-10-19T01:21:52;10.67;;;7.43;;
1679;SDS011;838;51.794;12.258;2023-10-19T01:24:23;9.40;;;6.70;;
1679;SDS011;838;51.794;12.258;2023-10-19T01:27:05;10.50;;;7.53;;
1679;SDS011;838;51.794;12.258;2023-10-19T01:29:34;10.50;;;6.50;;
1679;SDS011;838;51.794;12.258;2023-10-19T01:32:02;8.63;;;6.50;;
1679;SDS011;838;51.794;12.258;2023-10-19T01:34:33;10.10;;;7.70;;
1679;SDS011;838;51.794;12.258;2023-10-19T01:37:00;9.10;;;7.23;;
1679;SDS011;838;51.794;12.258;2023-10-19T01:39:38;11.83;;;7.03;;
1679;SDS011;838;51.794;12.258;2023-10-19T01:42:07;9.20;;;5.90;;
1679;SDS011;838;51.794;12.258;2023-10-19T01:44:33;10.20;;;6.67;;
1679;SDS011;838;51.794;12.258;2023-10-19T01:47:01;11.13;;;6.50;;
1679;SDS011;838;51.794;12.258;2023-10-19T01:49:27;10.27;;;7.17;;
1679;SDS011;838;51.794;12.258;2023-10-19T01:51:53;10.20;;;6.23;;
1679;SDS011;838;51.794;12.258;2023-10-19T01:54:20;11.00;;;7.13;;
1679;SDS011;838;51.794;12.258;2023-10-19T01:56:54;9.70;;;6.50;;
1679;SDS011;838;51.794;12.258;2023-10-19T01:59:24;13.50;;;7.80;;
1679;SDS011;838;51.794;12.258;2023-10-19T02:01:53;8.63;;;6.03;;
1679;SDS011;838;51.794;12.258;2023-10-19T02:04:20;11.63;;;7.00;;
1679;SDS011;838;51.794;12.258;2023-10-19T02:06:46;8.93;;;6.70;;
1679;SDS011;838;51.794;12.258;2023-10-19T02:09:14;10.10;;;7.07;;
1679;SDS011;838;51.794;12.258;2023-10-19T02:11:40;10.60;;;7.07;;
1679;SDS011;838;51.794;12.258;2023-10-19T02:14:11;10.03;;;7.20;;
1679;SDS011;838;51.794;12.258;2023-10-19T02:16:40;9.47;;;6.60;;
1679;SDS011;838;51.794;12.258;2023-10-19T02:19:16;9.90;;;6.67;;
1679;SDS011;838;51.794;12.258;2023-10-19T02:21:42;11.40;;;7.40;;
1679;SDS011;838;51.794;12.258;2023-10-19T02:24:09;11.77;;;7.27;;
1679;SDS011;838;51.794;12.258;2023-10-19T02:26:39;12.90;;;7.53;;
1679;SDS011;838;51.794;12.258;2023-10-19T02:29:08;10.70;;;6.97;;
1679;SDS011;838;51.794;12.258;2023-10-19T02:31:38;9.60;;;6.70;;
1679;SDS011;838;51.794;12.258;2023-10-19T02:34:09;12.83;;;7.00;;
1679;SDS011;838;51.794;12.258;2023-10-19T02:36:37;9.93;;;7.20;;
1679;SDS011;838;51.794;12.258;2023-10-19T02:39:05;11.37;;;7.60;;
1679;SDS011;838;51.794;12.258;2023-10-19T02:41:38;10.37;;;7.20;;
1679;SDS011;838;51.794;12.258;2023-10-19T02:44:13;10.50;;;7.83;;
1679;SDS011;838;51.794;12.258;2023-10-19T02:46:53;10.30;;;7.00;;
1679;SDS011;838;51.794;12.258;2023-10-19T02:49:40;13.43;;;7.63;;
1679;SDS011;838;51.794;12.258;2023-10-19T02:52:08;9.70;;;7.20;;
1679;SDS011;838;51.794;12.258;2023-10-19T02:54:35;11.83;;;7.20;;
1679;SDS011;838;51.794;12.258;2023-10-19T02:57:01;10.40;;;6.97;;
1679;SDS011;838;51.794;12.258;2023-10-19T02:59:31;8.23;;;6.30;;
1679;SDS011;838;51.794;12.258;2023-10-19T03:01:58;13.50;;;7.43;;
1679;SDS011;838;51.794;12.258;2023-10-19T03:04:36;10.70;;;7.77;;
1679;SDS011;838;51.794;12.258;2023-10-19T03:07:03;9.60;;;6.77;;
1679;SDS011;838;51.794;12.258;2023-10-19T03:09:29;12.60;;;7.53;;
1679;SDS011;838;51.794;12.258;2023-10-19T03:11:56;12.93;;;7.30;;
1679;SDS011;838;51.794;12.258;2023-10-19T03:14:25;9.90;;;6.97;;
1679;SDS011;838;51.794;12.258;2023-10-19T03:16:52;10.80;;;7.47;;
1679;SDS011;838;51.794;12.258;2023-10-19T03:19:21;10.10;;;7.37;;
1679;SDS011;838;51.794;12.258;2023-10-19T03:21:47;14.67;;;8.90;;
1679;SDS011;838;51.794;12.258;2023-10-19T03:24:15;11.53;;;7.13;;
1679;SDS011;838;51.794;12.258;2023-10-19T03:27:01;11.97;;;8.90;;
1679;SDS011;838;51.794;12.258;2023-10-19T03:29:48;11.90;;;6.57;;
1679;SDS011;838;51.794;12.258;2023-10-19T03:32:24;16.67;;;8.23;;
1679;SDS011;838;51.794;12.258;2023-10-19T03:34:57;12.30;;;7.63;;
1679;SDS011;838;51.794;12.258;2023-10-19T03:37:32;10.93;;;7.40;;
1679;SDS011;838;51.794;12.258;2023-10-19T03:40:01;10.70;;;7.70;;
1679;SDS011;838;51.794;12.258;2023-10-19T03:42:32;14.20;;;7.87;;
1679;SDS011;838;51.794;12.258;2023-10-19T03:44:58;10.13;;;7.47;;
1679;SDS011;838;51.794;12.258;2023-10-19T03:47:27;13.13;;;7.37;;
1679;SDS011;838;51.794;12.258;2023-10-19T03:50:00;10.97;;;8.07;;
1679;SDS011;838;51.794;12.258;2023-10-19T03:52:31;10.40;;;7.50;;
1679;SDS011;838;51.794;12.258;2023-10-19T03:54:57;10.37;;;7.33;;
1679;SDS011;838;51.794;12.258;2023-10-19T03:57:23;11.67;;;8.20;;
1679;SDS011;838;51.794;12.258;2023-10-19T03:59:54;13.73;;;8.60;;
1679;SDS011;838;51.794;12.258;2023-10-19T04:02:24;11.40;;;7.67;;
1679;SDS011;838;51.794;12.258;2023-10-19T04:04:52;15.90;;;8.47;;
1679;SDS011;838;51.794;12.258;2023-10-19T04:07:20;11.00;;;7.77;;
1679;SDS011;838;51.794;12.258;2023-10-19T04:09:47;11.20;;;7.93;;
1679;SDS011;838;51.794;12.258;2023-10-19T04:12:31;10.40;;;8.03;;
1679;SDS011;838;51.794;12.258;2023-10-19T04:15:00;12.30;;;8.37;;
1679;SDS011;838;51.794;12.258;2023-10-19T04:17:40;10.30;;;7.70;;
1679;SDS011;838;51.794;12.258;2023-10-19T04:20:14;14.73;;;8.67;;
1679;SDS011;838;51.794;12.258;2023-10-19T04:22:47;12.60;;;8.40;;
1679;SDS011;838;51.794;12.258;2023-10-19T04:25:18;12.00;;;8.30;;
1679;SDS011;838;51.794;12.258;2023-10-19T04:27:45;10.20;;;6.93;;
1679;SDS011;838;51.794;12.258;2023-10-19T04:30:12;12.50;;;8.37;;
1679;SDS011;838;51.794;12.258;2023-10-19T04:32:49;11.40;;;8.07;;
1679;SDS011;838;51.794;12.258;2023-10-19T04:35:16;14.53;;;8.00;;
1679;SDS011;838;51.794;12.258;2023-10-19T04:37:48;14.30;;;8.90;;
1679;SDS011;838;51.794;12.258;2023-10-19T04:40:15;11.77;;;7.77;;
1679;SDS011;838;51.794;12.258;2023-10-19T04:42:41;11.80;;;8.40;;
1679;SDS011;838;51.794;12.258;2023-10-19T04:45:07;12.50;;;8.73;;
1679;SDS011;838;51.794;12.258;2023-10-19T04:47:34;11.67;;;8.23;;
1679;SDS011;838;51.794;12.258;2023-10-19T04:50:03;11.93;;;8.47;;
1679;SDS011;838;51.794;12.258;2023-10-19T04:52:29;13.53;;;8.30;;
1679;SDS011;838;51.794;12.258;2023-10-19T04:54:55;10.57;;;7.70;;
1679;SDS011;838;51.794;12.258;2023-10-19T04:57:22;12.67;;;8.57;;
1679;SDS011;838;51.794;12.258;2023-10-19T04:59:47;15.47;;;9.60;;
1679;SDS011;838;51.794;12.258;2023-10-19T05:02:13;12.30;;;8.30;;
1679;SDS011;838;51.794;12.258;2023-10-19T05:04:39;14.63;;;9.40;;
1679;SDS011;838;51.794;12.258;2023-10-19T05:07:06;12.93;;;9.53;;
1679;SDS011;838;51.794;12.258;2023-10-19T05:09:34;13.07;;;8.60;;
1679;SDS011;838;51.794;12.258;2023-10-19T05:12:03;11.70;;;8.70;;
1679;SDS011;838;51.794;12.258;2023-10-19T05:14:34;12.27;;;7.63;;
1679;SDS011;838;51.794;12.258;2023-10-19T05:17:01;12.10;;;8.33;;
1679;SDS011;838;51.794;12.258;2023-10-19T05:19:29;12.77;;;8.10;;
1679;SDS011;838;51.794;12.258;2023-10-19T05:21:59;13.97;;;9.70;;
1679;SDS011;838;51.794;12.258;2023-10-19T05:24:26;13.23;;;7.97;;
1679;SDS011;838;51.794;12.258;2023-10-19T05:26:53;13.50;;;8.73;;
1679;SDS011;838;51.794;12.258;2023-10-19T05:29:19;12.53;;;8.33;;
1679;SDS011;838;51.794;12.258;2023-10-19T05:31:54;12.50;;;8.57;;
1679;SDS011;838;51.794;12.258;2023-10-19T05:34:20;13.90;;;8.60;;
1679;SDS011;838;51.794;12.258;2023-10-19T05:36:46;12.23;;;8.63;;
1679;SDS011;838;51.794;12.258;2023-10-19T05:39:17;13.57;;;8.33;;
1679;SDS011;838;51.794;12.258;2023-10-19T05:41:43;13.20;;;8.50;;
1679;SDS011;838;51.794;12.258;2023-10-19T05:44:09;14.07;;;8.50;;
1679;SDS011;838;51.794;12.258;2023-10-19T05:46:35;11.73;;;8.43;;
1679;SDS011;838;51.794;12.258;2023-10-19T05:49:01;15.33;;;9.30;;
1679;SDS011;838;51.794;12.258;2023-10-19T05:51:29;13.57;;;8.50;;
1679;SDS011;838;51.794;12.258;2023-10-19T05:53:57;15.00;;;9.87;;
1679;SDS011;838;51.794;12.258;2023-10-19T05:56:30;20.17;;;10.10;;
1679;SDS011;838;51.794;12.258;2023-10-19T05:58:59;11.90;;;8.30;;
1679;SDS011;838;51.794;12.258;2023-10-19T06:01:26;12.70;;;8.20;;
1679;SDS011;838;51.794;12.258;2023-10-19T06:03:52;17.07;;;8.97;;
1679;SDS011;838;51.794;12.258;2023-10-19T06:06:18;14.93;;;8.50;;
1679;SDS011;838;51.794;12.258;2023-10-19T06:08:45;13.93;;;8.93;;
1679;SDS011;838;51.794;12.258;2023-10-19T06:11:11;14.90;;;9.47;;
1679;SDS011;838;51.794;12.258;2023-10-19T06:13:36;12.93;;;8.43;;
1679;SDS011;838;51.794;12.258;2023-10-19T06:16:02;15.27;;;9.20;;
1679;SDS011;838;51.794;12.258;2023-10-19T06:18:28;16.30;;;9.10;;
1679;SDS011;838;51.794;12.258;2023-10-19T06:20:57;12.47;;;8.70;;
1679;SDS011;838;51.794;12.258;2023-10-19T06:23:22;12.47;;;8.03;;
1679;SDS011;838;51.794;12.258;2023-10-19T06:25:48;15.70;;;9.23;;
1679;SDS011;838;51.794;12.258;2023-10-19T06:28:16;13.60;;;8.67;;
1679;SDS011;838;51.794;12.258;2023-10-19T06:30:42;10.80;;;7.93;;
1679;SDS011;838;51.794;12.258;2023-10-19T06:33:08;13.30;;;9.03;;
1679;SDS011;838;51.794;12.258;2023-10-19T06:35:34;11.90;;;8.90;;
1679;SDS011;838;51.794;12.258;2023-10-19T06:38:02;12.87;;;9.13;;
1679;SDS011;838;51.794;12.258;2023-10-19T06:40:29;12.67;;;9.20;;
1679;SDS011;838;51.794;12.258;2023-10-19T06:42:56;12.30;;;8.60;;
1679;SDS011;838;51.794;12.258;2023-10-19T06:45:27;14.33;;;8.20;;
1679;SDS011;838;51.794;12.258;2023-10-19T06:47:54;14.50;;;8.70;;
1679;SDS011;838;51.794;12.258;2023-10-19T06:50:21;12.27;;;8.60;;
1679;SDS011;838;51.794;12.258;2023-10-19T06:52:48;14.50;;;10.00;;
1679;SDS011;838;51.794;12.258;2023-10-19T06:55:15;14.27;;;8.83;;
1679;SDS011;838;51.794;12.258;2023-10-19T06:57:44;14.50;;;8.87;;
1679;SDS011;838;51.794;12.258;2023-10-19T07:00:13;15.30;;;9.40;;
1679;SDS011;838;51.794;12.258;2023-10-19T07:02:50;15.80;;;9.90;;
1679;SDS011;838;51.794;12.258;2023-10-19T07:05:17;14.70;;;10.00;;
1679;SDS011;838;51.794;12.258;2023-10-19T07:07:44;13.10;;;9.50;;
1679;SDS011;838;51.794;12.258;2023-10-19T07:10:11;15.17;;;10.00;;
1679;SDS011;838;51.794;12.258;2023-10-19T07:12:38;13.70;;;9.63;;
1679;SDS011;838;51.794;12.258;2023-10-19T07:15:06;11.70;;;9.33;;
1679;SDS011;838;51.794;12.258;2023-10-19T07:17:36;13.33;;;9.27;;
1679;SDS011;838;51.794;12.258;2023-10-19T07:20:03;12.43;;;9.67;;
1679;SDS011;838;51.794;12.258;2023-10-19T07:22:31;13.43;;;9.70;;
1679;SDS011;838;51.794;12.258;2023-10-19T07:24:58;12.57;;;9.77;;
1679;SDS011;838;51.794;12.258;2023-10-19T07:27:24;16.87;;;9.40;;
1679;SDS011;838;51.794;12.258;2023-10-19T07:29:53;13.20;;;9.80;;
1679;SDS011;838;51.794;12.258;2023-10-19T07:32:19;13.10;;;8.93;;
1679;SDS011;838;51.794;12.258;2023-10-19T07:34:44;14.90;;;9.13;;
1679;SDS011;838;51.794;12.258;2023-10-19T07:37:11;15.70;;;9.83;;
1679;SDS011;838;51.794;12.258;2023-10-19T07:39:46;14.47;;;9.93;;
1679;SDS011;838;51.794;12.258;2023-10-19T07:42:14;16.47;;;9.80;;
1679;SDS011;838;51.794;12.258;2023-10-19T07:44:40;16.33;;;11.27;;
1679;SDS011;838;51.794;12.258;2023-10-19T07:47:06;16.57;;;9.40;;
1679;SDS011;838;51.794;12.258;2023-10-19T07:49:34;13.50;;;9.87;;
1679;SDS011;838;51.794;12.258;2023-10-19T07:52:03;14.60;;;9.33;;
1679;SDS011;838;51.794;12.258;2023-10-19T07:54:32;14.40;;;10.20;;
1679;SDS011;838;51.794;12.258;2023-10-19T07:57:04;12.57;;;9.70;;
1679;SDS011;838;51.794;12.258;2023-10-19T07:59:33;15.60;;;9.87;;
1679;SDS011;838;51.794;12.258;2023-10-19T08:01:59;16.03;;;10.53;;
1679;SDS011;838;51.794;12.258;2023-10-19T08:04:29;13.87;;;9.70;;
1679;SDS011;838;51.794;12.258;2023-10-19T08:06:55;16.90;;;9.70;;
1679;SDS011;838;51.794;12.258;2023-10-19T08:09:24;15.87;;;10.43;;
1679;SDS011;838;51.794;12.258;2023-10-19T08:11:56;15.10;;;9.87;;
1679;SDS011;838;51.794;12.258;2023-10-19T08:14:25;11.20;;;9.37;;
1679;SDS011;838;51.794;12.258;2023-10-19T08:16:52;13.57;;;9.90;;
1679;SDS011;838;51.794;12.258;2023-10-19T08:19:18;13.80;;;9.80;;
1679;SDS011;838;51.794;12.258;2023-10-19T08:21:44;15.50;;;9.87;;
1679;SDS011;838;51.794;12.258;2023-10-19T08:24:10;16.83;;;10.80;;
1679;SDS011;838;51.794;12.258;2023-10-19T08:26:42;14.73;;;9.97;;
1679;SDS011;838;51.794;12.258;2023-10-19T08:29:10;15.53;;;9.60;;
1679;SDS011;838;51.794;12.258;2023-10-19T08:31:43;12.83;;;10.17;;
1679;SDS011;838;51.794;12.258;2023-10-19T08:34:11;12.07;;;9.50;;
1679;SDS011;838;51.794;12.258;2023-10-19T08:36:38;11.60;;;8.67;;
1679;SDS011;838;51.794;12.258;2023-10-19T08:39:07;14.30;;;9.40;;
1679;SDS011;838;51.794;12.258;2023-10-19T08:41:36;14.80;;;9.57;;
1679;SDS011;838;51.794;12.258;2023-10-19T08:44:03;15.23;;;9.37;;
1679;SDS011;838;51.794;12.258;2023-10-19T08:46:35;12.13;;;8.90;;
1679;SDS011;838;51.794;12.258;2023-10-19T08:49:08;11.20;;;8.70;;
1679;SDS011;838;51.794;12.258;2023-10-19T08:51:36;12.20;;;9.23;;
1679;SDS011;838;51.794;12.258;2023-10-19T08:54:03;13.07;;;9.60;;
1679;SDS011;838;51.794;12.258;2023-10-19T08:56:31;15.47;;;9.37;;
1679;SDS011;838;51.794;12.258;2023-10-19T08:58:59;13.67;;;8.63;;
1679;SDS011;838;51.794;12.258;2023-10-19T09:01:27;13.33;;;8.40;;
1679;SDS011;838;51.794;12.258;2023-10-19T09:03:56;12.07;;;9.07;;
1679;SDS011;838;51.794;12.258;2023-10-19T09:06:25;12.73;;;9.20;;
1679;SDS011;838;51.794;12.258;2023-10-19T09:08:54;12.00;;;8.77;;
1679;SDS011;838;51.794;12.258;2023-10-19T09:11:22;11.03;;;8.57;;
1679;SDS011;838;51.794;12.258;2023-10-19T09:13:50;11.20;;;8.23;;
1679;SDS011;838;51.794;12.258;2023-10-19T09:16:17;10.50;;;7.67;;
1679;SDS011;838;51.794;12.258;2023-10-19T09:18:47;10.70;;;8.20;;
1679;SDS011;838;51.794;12.258;2023-10-19T09:21:20;12.30;;;7.87;;
1679;SDS011;838;51.794;12.258;2023-10-19T09:23:50;11.30;;;8.20;;
1679;SDS011;838;51.794;12.258;2023-10-19T09:26:16;11.07;;;8.40;;
1679;SDS011;838;51.794;12.258;2023-10-19T09:28:45;12.23;;;9.03;;
1679;SDS011;838;51.794;12.258;2023-10-19T09:31:12;11.87;;;8.10;;
1679;SDS011;838;51.794;12.258;2023-10-19T09:33:42;11.53;;;7.80;;
1679;SDS011;838;51.794;12.258;2023-10-19T09:36:12;10.83;;;8.80;;
1679;SDS011;838;51.794;12.258;2023-10-19T09:41:13;10.43;;;8.17;;
1679;SDS011;838;51.794;12.258;2023-10-19T09:43:50;11.40;;;8.23;;
1679;SDS011;838;51.794;12.258;2023-10-19T09:46:23;11.13;;;7.93;;
1679;SDS011;838;51.794;12.258;2023-10-19T09:48:56;11.13;;;8.40;;
1679;SDS011;838;51.794;12.258;2023-10-19T09:51:23;12.50;;;9.13;;
1679;SDS011;838;51.794;12.258;2023-10-19T09:53:57;12.97;;;9.00;;
1679;SDS011;838;51.794;12.258;2023-10-19T09:56:36;11.50;;;8.00;;
1679;SDS011;838;51.794;12.258;2023-10-19T09:59:10;12.73;;;9.50;;
1679;SDS011;838;51.794;12.258;2023-10-19T10:04:32;12.93;;;8.67;;
1679;SDS011;838;51.794;12.258;2023-10-19T10:07:00;12.23;;;8.50;;
1679;SDS011;838;51.794;12.258;2023-10-19T10:09:29;12.83;;;8.70;;
1679;SDS011;838;51.794;12.258;2023-10-19T10:11:55;11.00;;;8.50;;
1679;SDS011;838;51.794;12.258;2023-10-19T10:14:27;13.67;;;9.23;;
1679;SDS011;838;51.794;12.258;2023-10-19T10:17:00;12.87;;;9.30;;
1679;SDS011;838;51.794;12.258;2023-10-19T10:19:27;12.27;;;8.57;;
1679;SDS011;838;51.794;12.258;2023-10-19T10:24:53;11.30;;;8.90;;
1679;SDS011;838;51.794;12.258;2023-10-19T10:27:21;12.73;;;9.37;;
1679;SDS011;838;51.794;12.258;2023-10-19T10:29:56;13.00;;;9.10;;
1679;SDS011;838;51.794;12.258;2023-10-19T10:32:51;13.00;;;8.60;;
1679;SDS011;838;51.794;12.258;2023-10-19T10:38:09;14.20;;;9.13;;
1679;SDS011;838;51.794;12.258;2023-10-19T10:40:42;13.93;;;9.70;;
1679;SDS011;838;51.794;12.258;2023-10-19T10:43:09;13.27;;;9.30;;
1679;SDS011;838;51.794;12.258;2023-10-19T10:45:35;13.10;;;9.90;;
1679;SDS011;838;51.794;12.258;2023-10-19T10:48:04;13.90;;;9.97;;
1679;SDS011;838;51.794;12.258;2023-10-19T10:50:37;17.97;;;10.70;;
1679;SDS011;838;51.794;12.258;2023-10-19T10:53:04;14.17;;;10.30;;
1679;SDS011;838;51.794;12.258;2023-10-19T10:55:30;15.67;;;10.10;;
1679;SDS011;838;51.794;12.258;2023-10-19T10:57:57;14.77;;;10.43;;
1679;SDS011;838;51.794;12.258;2023-10-19T11:00:25;14.20;;;10.10;;
1679;SDS011;838;51.794;12.258;2023-10-19T11:03:06;13.83;;;9.60;;
1679;SDS011;838;51.794;12.258;2023-10-19T11:05:33;15.63;;;11.17;;
1679;SDS011;838;51.794;12.258;2023-10-19T11:08:11;12.70;;;10.17;;
1679;SDS011;838;51.794;12.258;2023-10-19T11:10:38;14.13;;;10.57;;
1679;SDS011;838;51.794;12.258;2023-10-19T11:13:12;13.57;;;9.73;;
1679;SDS011;838;51.794;12.258;2023-10-19T11:15:48;13.93;;;10.73;;
1679;SDS011;838;51.794;12.258;2023-10-19T11:21:12;16.53;;;11.10;;
1679;SDS011;838;51.794;12.258;2023-10-19T11:23:43;13.40;;;10.40;;
1679;SDS011;838;51.794;12.258;2023-10-19T11:26:12;14.73;;;10.07;;
1679;SDS011;838;51.794;12.258;2023-10-19T11:28:39;12.77;;;10.50;;
1679;SDS011;838;51.794;12.258;2023-10-19T11:31:13;14.93;;;10.60;;
1679;SDS011;838;51.794;12.258;2023-10-19T11:33:47;15.17;;;10.07;;
1679;SDS011;838;51.794;12.258;2023-10-19T11:36:17;14.60;;;10.13;;
1679;SDS011;838;51.794;12.258;2023-10-19T11:38:45;14.83;;;9.90;;
1679;SDS011;838;51.794;12.258;2023-10-19T11:41:13;13.97;;;10.50;;
1679;SDS011;838;51.794;12.258;2023-10-19T11:43:39;16.50;;;9.90;;
1679;SDS011;838;51.794;12.258;2023-10-19T11:46:06;15.20;;;10.80;;
1679;SDS011;838;51.794;12.258;2023-10-19T11:48:36;16.07;;;12.17;;
1679;SDS011;838;51.794;12.258;2023-10-19T11:51:02;14.90;;;11.00;;
1679;SDS011;838;51.794;12.258;2023-10-19T11:53:30;15.47;;;10.97;;
1679;SDS011;838;51.794;12.258;2023-10-19T11:56:03;15.90;;;10.77;;
1679;SDS011;838;51.794;12.258;2023-10-19T11:58:31;15.33;;;11.37;;
1679;SDS011;838;51.794;12.258;2023-10-19T12:01:07;15.10;;;11.80;;
1679;SDS011;838;51.794;12.258;2023-10-19T12:03:37;15.97;;;11.70;;
1679;SDS011;838;51.794;12.258;2023-10-19T12:06:05;16.50;;;11.83;;
1679;SDS011;838;51.794;12.258;2023-10-19T12:08:33;15.73;;;12.53;;
1679;SDS011;838;51.794;12.258;2023-10-19T12:10:59;17.17;;;11.10;;
1679;SDS011;838;51.794;12.258;2023-10-19T12:13:29;13.50;;;10.50;;
1679;SDS011;838;51.794;12.258;2023-10-19T12:15:58;14.53;;;11.33;;
1679;SDS011;838;51.794;12.258;2023-10-19T12:18:24;15.77;;;12.70;;
1679;SDS011;838;51.794;12.258;2023-10-19T12:20:53;15.30;;;11.20;;
1679;SDS011;838;51.794;12.258;2023-10-19T12:23:29;16.67;;;13.00;;
1679;SDS011;838;51.794;12.258;2023-10-19T12:25:56;14.60;;;11.20;;
1679;SDS011;838;51.794;12.258;2023-10-19T12:28:22;17.13;;;12.20;;
1679;SDS011;838;51.794;12.258;2023-10-19T12:30:49;16.53;;;12.67;;
1679;SDS011;838;51.794;12.258;2023-10-19T12:33:15;14.60;;;11.47;;
1679;SDS011;838;51.794;12.258;2023-10-19T12:35:41;16.20;;;12.43;;
1679;SDS011;838;51.794;12.258;2023-10-19T12:38:17;15.53;;;12.60;;
1679;SDS011;838;51.794;12.258;2023-10-19T12:40:48;18.07;;;13.87;;
1679;SDS011;838;51.794;12.258;2023-10-19T12:43:19;17.53;;;11.97;;
1679;SDS011;838;51.794;12.258;2023-10-19T12:45:47;18.03;;;13.23;;
1679;SDS011;838;51.794;12.258;2023-10-19T12:48:18;17.87;;;13.33;;
1679;SDS011;838;51.794;12.258;2023-10-19T12:50:45;20.67;;;13.57;;
1679;SDS011;838;51.794;12.258;2023-10-19T12:53:12;17.47;;;12.83;;
1679;SDS011;838;51.794;12.258;2023-10-19T12:55:39;19.80;;;13.60;;
1679;SDS011;838;51.794;12.258;2023-10-19T12:58:05;17.17;;;13.70;;
1679;SDS011;838;51.794;12.258;2023-10-19T13:00:39;18.33;;;13.73;;
1679;SDS011;838;51.794;12.258;2023-10-19T13:03:13;18.77;;;14.20;;
1679;SDS011;838;51.794;12.258;2023-10-19T13:05:41;20.40;;;14.37;;
1679;SDS011;838;51.794;12.258;2023-10-19T13:08:09;19.77;;;13.80;;
1679;SDS011;838;51.794;12.258;2023-10-19T13:10:38;23.20;;;14.63;;
1679;SDS011;838;51.794;12.258;2023-10-19T13:13:07;17.93;;;13.90;;
1679;SDS011;838;51.794;12.258;2023-10-19T13:15:37;16.70;;;13.00;;
1679;SDS011;838;51.794;12.258;2023-10-19T13:18:09;18.97;;;14.10;;
1679;SDS011;838;51.794;12.258;2023-10-19T13:20:36;17.07;;;13.40;;
1679;SDS011;838;51.794;12.258;2023-10-19T13:23:04;18.33;;;14.30;;
1679;SDS011;838;51.794;12.258;2023-10-19T13:25:32;24.40;;;15.27;;
1679;SDS011;838;51.794;12.258;2023-10-19T13:28:17;20.57;;;15.33;;
1679;SDS011;838;51.794;12.258;2023-10-19T13:33:14;22.43;;;15.60;;
1679;SDS011;838;51.794;12.258;2023-10-19T13:35:41;20.47;;;15.00;;
1679;SDS011;838;51.794;12.258;2023-10-19T13:38:08;20.53;;;15.20;;
1679;SDS011;838;51.794;12.258;2023-10-19T13:40:35;19.00;;;15.37;;
1679;SDS011;838;51.794;12.258;2023-10-19T13:43:02;19.73;;;14.23;;
1679;SDS011;838;51.794;12.258;2023-10-19T13:45:35;24.43;;;17.53;;
1679;SDS011;838;51.794;12.258;2023-10-19T13:48:05;25.53;;;16.80;;
1679;SDS011;838;51.794;12.258;2023-10-19T13:50:32;22.00;;;17.40;;
1679;SDS011;838;51.794;12.258;2023-10-19T13:52:59;29.50;;;18.30;;
1679;SDS011;838;51.794;12.258;2023-10-19T13:55:26;21.87;;;17.77;;
1679;SDS011;838;51.794;12.258;2023-10-19T13:57:52;22.80;;;18.03;;
1679;SDS011;838;51.794;12.258;2023-10-19T14:00:20;26.23;;;18.07;;
1679;SDS011;838;51.794;12.258;2023-10-19T14:02:50;23.00;;;17.30;;
1679;SDS011;838;51.794;12.258;2023-10-19T14:05:16;26.20;;;18.07;;
1679;SDS011;838;51.794;12.258;2023-10-19T14:07:42;24.50;;;16.80;;
1679;SDS011;838;51.794;12.258;2023-10-19T14:10:08;24.20;;;18.37;;
1679;SDS011;838;51.794;12.258;2023-10-19T14:12:38;27.03;;;17.40;;
1679;SDS011;838;51.794;12.258;2023-10-19T14:15:08;22.30;;;17.10;;
1679;SDS011;838;51.794;12.258;2023-10-19T14:17:37;26.60;;;19.07;;
1679;SDS011;838;51.794;12.258;2023-10-19T14:20:03;23.53;;;18.03;;
1679;SDS011;838;51.794;12.258;2023-10-19T14:22:31;25.47;;;16.63;;
1679;SDS011;838;51.794;12.258;2023-10-19T14:25:00;25.90;;;17.50;;
1679;SDS011;838;51.794;12.258;2023-10-19T14:27:26;23.27;;;16.87;;
1679;SDS011;838;51.794;12.258;2023-10-19T14:29:51;26.93;;;18.67;;
1679;SDS011;838;51.794;12.258;2023-10-19T14:32:17;30.37;;;17.80;;
1679;SDS011;838;51.794;12.258;2023-10-19T14:34:43;24.03;;;18.23;;
1679;SDS011;838;51.794;12.258;2023-10-19T14:37:09;25.70;;;18.43;;
1679;SDS011;838;51.794;12.258;2023-10-19T14:39:35;27.17;;;18.50;;
1679;SDS011;838;51.794;12.258;2023-10-19T14:42:01;27.07;;;20.07;;
1679;SDS011;838;51.794;12.258;2023-10-19T14:44:27;24.30;;;17.90;;
1679;SDS011;838;51.794;12.258;2023-10-19T14:46:53;27.70;;;17.63;;
1679;SDS011;838;51.794;12.258;2023-10-19T14:49:19;24.93;;;18.23;;
1679;SDS011;838;51.794;12.258;2023-10-19T14:51:45;23.10;;;18.70;;
1679;SDS011;838;51.794;12.258;2023-10-19T14:54:10;28.97;;;18.40;;
1679;SDS011;838;51.794;12.258;2023-10-19T14:56:37;26.53;;;18.33;;
1679;SDS011;838;51.794;12.258;2023-10-19T14:59:02;30.13;;;20.00;;
1679;SDS011;838;51.794;12.258;2023-10-19T15:01:30;26.77;;;19.80;;
1679;SDS011;838;51.794;12.258;2023-10-19T15:03:56;27.10;;;18.30;;
1679;SDS011;838;51.794;12.258;2023-10-19T15:06:22;25.73;;;20.67;;
1679;SDS011;838;51.794;12.258;2023-10-19T15:08:48;29.27;;;20.03;;
1679;SDS011;838;51.794;12.258;2023-10-19T15:11:16;32.53;;;20.77;;
1679;SDS011;838;51.794;12.258;2023-10-19T15:13:44;29.83;;;20.03;;
1679;SDS011;838;51.794;12.258;2023-10-19T15:16:10;31.43;;;20.17;;
1679;SDS011;838;51.794;12.258;2023-10-19T15:18:37;29.23;;;20.70;;
1679;SDS011;838;51.794;12.258;2023-10-19T15:21:10;29.20;;;21.23;;
1679;SDS011;838;51.794;12.258;2023-10-19T15:23:38;30.30;;;19.27;;
1679;SDS011;838;51.794;12.258;2023-10-19T15:26:06;35.50;;;21.33;;